Time;durP1;ratioP1;P1;durP2;ratioP2;P2;SDS_P1;SDS_P2;PMS_P1;PMS_P2;Temp;Humidity;BMP_temperature;BMP_pressure;BME280_temperature;BME280_humidity;BME280_pressure;Samples;Min_cycle;Max_cycle;Signal;HPM_P1;HPM_P2
2022/04/09 00:01:06;;;;;;;8.32;3.95;;;;;;;;;;5037534;28;20124;-73
2022/04/09 00:03:33;;;;;;;12.23;4.55;;;;;;;;;;5041289;28;20052;-73
2022/04/09 00:05:59;;;;;;;8.15;4.35;;;;;;;;;;5039973;28;20049;-74
2022/04/09 00:08:25;;;;;;;13.95;5.43;;;;;;;;;;5041774;28;20029;-72
2022/04/09 00:10:51;;;;;;;7.13;4.68;;;;;;;;;;5047669;28;20032;-72
2022/04/09 00:13:19;;;;;;;12.05;5.82;;;;;;;;;;5046808;28;20870;-73
2022/04/09 00:15:45;;;;;;;10.88;6.53;;;;;;;;;;5043070;28;20514;-72
2022/04/09 00:18:15;;;;;;;11.40;5.35;;;;;;;;;;5043674;28;20071;-73
2022/04/09 00:20:41;;;;;;;9.45;5.10;;;;;;;;;;5041976;28;20025;-72
2022/04/09 00:23:10;;;;;;;12.40;5.78;;;;;;;;;;5047913;28;20036;-73
2022/04/09 00:25:36;;;;;;;19.83;10.63;;;;;;;;;;5025371;28;20505;-74
2022/04/09 00:28:02;;;;;;;17.45;9.43;;;;;;;;;;5044624;28;20036;-71
2022/04/09 00:30:28;;;;;;;10.68;6.25;;;;;;;;;;5042228;28;20059;-73
2022/04/09 00:32:55;;;;;;;6.15;4.00;;;;;;;;;;5044891;28;20017;-73
2022/04/09 00:35:21;;;;;;;4.55;3.50;;;;;;;;;;5040761;28;20549;-73
2022/04/09 00:37:47;;;;;;;8.30;4.32;;;;;;;;;;5043343;28;20044;-73
2022/04/09 00:40:14;;;;;;;5.47;3.72;;;;;;;;;;5042763;28;20024;-72
2022/04/09 00:42:42;;;;;;;7.93;3.88;;;;;;;;;;5043594;28;20130;-72
2022/04/09 00:45:08;;;;;;;9.55;3.75;;;;;;;;;;5043748;28;20482;-73
2022/04/09 00:47:37;;;;;;;8.00;3.60;;;;;;;;;;5026818;28;20044;-72
2022/04/09 00:50:05;;;;;;;9.90;3.72;;;;;;;;;;5040786;28;20044;-73
2022/04/09 00:52:34;;;;;;;11.27;4.82;;;;;;;;;;5044350;28;20105;-74
2022/04/09 00:55:01;;;;;;;10.10;5.25;;;;;;;;;;5042699;28;20061;-74
2022/04/09 00:57:28;;;;;;;7.15;4.80;;;;;;;;;;5043015;28;20122;-72
2022/04/09 00:59:55;;;;;;;6.90;5.03;;;;;;;;;;5043193;28;20030;-73
2022/04/09 01:02:21;;;;;;;5.13;4.05;;;;;;;;;;5043618;28;20071;-71
2022/04/09 01:04:49;;;;;;;4.35;3.05;;;;;;;;;;5039481;28;21189;-73
2022/04/09 01:07:15;;;;;;;8.90;3.22;;;;;;;;;;5041979;28;20101;-72
2022/04/09 01:09:45;;;;;;;7.63;3.42;;;;;;;;;;5039355;28;20029;-73
2022/04/09 01:12:15;;;;;;;6.95;3.30;;;;;;;;;;5042040;28;20555;-71
2022/04/09 01:14:41;;;;;;;9.23;3.08;;;;;;;;;;5043297;28;20029;-72
2022/04/09 01:17:07;;;;;;;6.50;3.40;;;;;;;;;;5040523;28;20025;-74
2022/04/09 01:19:34;;;;;;;9.93;3.28;;;;;;;;;;5039858;28;20025;-73
2022/04/09 01:22:00;;;;;;;5.32;3.10;;;;;;;;;;5041631;28;20121;-73
2022/04/09 01:24:26;;;;;;;6.25;3.22;;;;;;;;;;5028760;28;20021;-74
2022/04/09 01:26:53;;;;;;;5.07;3.15;;;;;;;;;;5041134;28;20035;-73
2022/04/09 01:29:19;;;;;;;5.32;2.92;;;;;;;;;;5024476;28;20037;-72
2022/04/09 01:31:45;;;;;;;4.90;2.97;;;;;;;;;;5038513;28;20089;-73
2022/04/09 01:34:14;;;;;;;5.57;2.75;;;;;;;;;;5042199;28;20021;-72
2022/04/09 01:36:40;;;;;;;6.07;3.03;;;;;;;;;;5041328;28;20017;-73
2022/04/09 01:39:06;;;;;;;8.43;3.97;;;;;;;;;;5040256;28;20056;-71
2022/04/09 01:41:32;;;;;;;4.18;2.70;;;;;;;;;;5040249;28;20025;-73
2022/04/09 01:43:58;;;;;;;6.00;3.20;;;;;;;;;;5021036;28;20029;-73
2022/04/09 01:46:24;;;;;;;5.50;3.40;;;;;;;;;;5041566;28;20437;-72
2022/04/09 01:48:50;;;;;;;7.22;2.88;;;;;;;;;;5039390;28;20043;-74
2022/04/09 01:51:16;;;;;;;6.28;3.08;;;;;;;;;;5021011;28;20036;-73
2022/04/09 01:53:43;;;;;;;5.00;2.80;;;;;;;;;;5041534;28;20040;-72
2022/04/09 01:56:09;;;;;;;7.30;3.85;;;;;;;;;;5021553;28;20024;-73
2022/04/09 01:58:35;;;;;;;6.10;2.92;;;;;;;;;;5022299;28;20031;-72
2022/04/09 02:01:01;;;;;;;4.07;2.22;;;;;;;;;;5042170;28;20483;-74
2022/04/09 02:03:27;;;;;;;8.60;3.40;;;;;;;;;;5043580;28;20132;-73
2022/04/09 02:05:53;;;;;;;4.45;2.40;;;;;;;;;;5023392;28;20138;-74
2022/04/09 02:08:20;;;;;;;8.73;3.67;;;;;;;;;;5038437;28;20474;-74
2022/04/09 02:10:46;;;;;;;8.05;3.13;;;;;;;;;;5037707;28;20045;-73
2022/04/09 02:13:12;;;;;;;9.38;3.20;;;;;;;;;;5039852;28;20032;-73
2022/04/09 02:15:39;;;;;;;5.50;3.10;;;;;;;;;;5040057;28;20013;-73
2022/04/09 02:18:05;;;;;;;8.38;4.10;;;;;;;;;;5038611;28;20477;-73
2022/04/09 02:20:33;;;;;;;9.52;3.65;;;;;;;;;;5036966;28;20025;-73
2022/04/09 02:22:59;;;;;;;4.28;3.38;;;;;;;;;;5039159;28;20089;-73
2022/04/09 02:25:25;;;;;;;5.45;3.35;;;;;;;;;;5046660;28;20051;-72
2022/04/09 02:27:51;;;;;;;9.38;4.35;;;;;;;;;;5043166;28;20039;-72
2022/04/09 02:30:17;;;;;;;7.65;3.53;;;;;;;;;;5027434;28;20029;-73
2022/04/09 02:32:51;;;;;;;10.70;3.30;;;;;;;;;;5043951;28;20025;-74
2022/04/09 02:35:17;;;;;;;7.32;3.33;;;;;;;;;;5037173;28;20486;-72
2022/04/09 02:37:44;;;;;;;6.40;3.47;;;;;;;;;;5045342;28;20458;-72
2022/04/09 02:40:10;;;;;;;4.97;3.42;;;;;;;;;;5045894;28;20108;-73
2022/04/09 02:42:37;;;;;;;8.20;3.10;;;;;;;;;;5050395;28;20087;-74
2022/04/09 02:45:04;;;;;;;11.20;3.28;;;;;;;;;;5046887;28;20045;-74
2022/04/09 02:47:31;;;;;;;9.07;3.70;;;;;;;;;;5049980;28;20067;-72
2022/04/09 02:49:57;;;;;;;7.72;3.67;;;;;;;;;;5044041;28;20167;-73
2022/04/09 02:52:23;;;;;;;4.70;3.05;;;;;;;;;;5044556;28;20020;-73
2022/04/09 02:54:49;;;;;;;6.53;3.50;;;;;;;;;;5047066;28;20027;-73
2022/04/09 02:57:15;;;;;;;8.88;3.90;;;;;;;;;;5043919;28;20100;-73
2022/04/09 02:59:41;;;;;;;6.25;3.53;;;;;;;;;;5045281;28;20033;-74
2022/04/09 03:02:07;;;;;;;5.85;3.45;;;;;;;;;;5044989;28;20680;-73
2022/04/09 03:04:33;;;;;;;7.07;3.25;;;;;;;;;;5045753;28;20482;-73
2022/04/09 03:06:59;;;;;;;5.07;2.85;;;;;;;;;;5046731;28;20277;-73
2022/04/09 03:09:25;;;;;;;7.75;3.45;;;;;;;;;;5040480;28;20040;-72
2022/04/09 03:11:51;;;;;;;6.28;2.83;;;;;;;;;;5048020;28;20474;-72
2022/04/09 03:14:17;;;;;;;6.55;3.72;;;;;;;;;;5047622;28;20029;-72
2022/04/09 03:16:43;;;;;;;5.03;3.35;;;;;;;;;;5046675;28;20494;-73
2022/04/09 03:19:09;;;;;;;6.38;3.28;;;;;;;;;;5046972;28;20075;-72
2022/04/09 03:21:35;;;;;;;5.65;2.80;;;;;;;;;;5046841;28;20037;-72
2022/04/09 03:24:01;;;;;;;4.72;3.10;;;;;;;;;;5047391;28;20037;-72
2022/04/09 03:26:27;;;;;;;4.22;3.15;;;;;;;;;;5043939;28;21012;-73
2022/04/09 03:28:54;;;;;;;5.45;3.08;;;;;;;;;;5039360;28;20025;-73
2022/04/09 03:31:20;;;;;;;5.22;3.70;;;;;;;;;;5038468;28;20025;-74
2022/04/09 03:33:47;;;;;;;8.85;3.65;;;;;;;;;;5045982;28;20086;-72
2022/04/09 03:36:13;;;;;;;5.25;2.92;;;;;;;;;;5049198;28;20505;-72
2022/04/09 03:38:42;;;;;;;5.15;3.42;;;;;;;;;;5052727;28;20033;-73
2022/04/09 03:41:09;;;;;;;5.85;3.90;;;;;;;;;;5051820;28;20036;-73
2022/04/09 03:43:35;;;;;;;4.80;3.00;;;;;;;;;;5035305;28;20085;-72
2022/04/09 03:46:01;;;;;;;5.47;3.20;;;;;;;;;;5053350;28;20113;-72
2022/04/09 03:48:27;;;;;;;8.43;2.90;;;;;;;;;;5053039;28;20025;-73
2022/04/09 03:50:53;;;;;;;5.65;3.05;;;;;;;;;;5051074;28;20060;-73
2022/04/09 03:53:20;;;;;;;8.63;3.67;;;;;;;;;;5053583;28;20029;-74
2022/04/09 03:55:50;;;;;;;7.25;3.75;;;;;;;;;;5052176;28;20497;-72
2022/04/09 03:58:16;;;;;;;8.02;3.15;;;;;;;;;;5053314;28;20064;-73
2022/04/09 04:00:42;;;;;;;6.93;3.50;;;;;;;;;;5053520;28;20033;-72
2022/04/09 04:03:10;;;;;;;5.10;3.17;;;;;;;;;;5051492;28;20025;-72
2022/04/09 04:05:40;;;;;;;6.47;3.65;;;;;;;;;;5052065;28;20044;-72
2022/04/09 04:08:06;;;;;;;7.45;3.60;;;;;;;;;;5043369;28;20095;-74
2022/04/09 04:10:35;;;;;;;5.07;3.08;;;;;;;;;;5052733;28;20418;-73
2022/04/09 04:13:01;;;;;;;5.22;3.25;;;;;;;;;;5053289;28;20029;-72
2022/04/09 04:15:28;;;;;;;7.55;3.70;;;;;;;;;;5032063;28;20048;-73
2022/04/09 04:17:55;;;;;;;8.63;3.50;;;;;;;;;;5050563;28;20025;-74
2022/04/09 04:20:21;;;;;;;7.50;2.95;;;;;;;;;;5054052;28;20112;-72
2022/04/09 04:22:47;;;;;;;4.95;3.22;;;;;;;;;;5028270;28;20040;-73
2022/04/09 04:25:13;;;;;;;7.80;3.58;;;;;;;;;;5049947;28;20032;-72
2022/04/09 04:27:49;;;;;;;5.32;3.20;;;;;;;;;;5052808;28;20021;-73
2022/04/09 04:30:17;;;;;;;6.28;3.30;;;;;;;;;;5036538;28;20426;-73
2022/04/09 04:32:43;;;;;;;5.47;3.58;;;;;;;;;;5047629;28;20051;-72
2022/04/09 04:35:10;;;;;;;6.80;3.33;;;;;;;;;;5044755;28;20719;-73
2022/04/09 04:37:37;;;;;;;8.65;3.28;;;;;;;;;;5044913;28;20078;-73
2022/04/09 04:40:03;;;;;;;7.88;3.53;;;;;;;;;;5047441;28;20025;-73
2022/04/09 04:42:29;;;;;;;8.90;3.90;;;;;;;;;;5044756;28;20075;-73
2022/04/09 04:44:55;;;;;;;8.45;3.20;;;;;;;;;;5027164;28;20074;-73
2022/04/09 04:47:21;;;;;;;7.43;3.60;;;;;;;;;;5044027;28;20043;-72
2022/04/09 04:49:47;;;;;;;4.75;3.00;;;;;;;;;;5042996;28;20057;-72
2022/04/09 04:52:13;;;;;;;8.82;3.15;;;;;;;;;;5041757;28;20099;-73
2022/04/09 04:54:39;;;;;;;7.75;3.22;;;;;;;;;;5043580;28;20032;-73
2022/04/09 04:57:05;;;;;;;3.75;2.90;;;;;;;;;;5039990;28;20053;-73
2022/04/09 04:59:31;;;;;;;7.68;3.42;;;;;;;;;;5044770;28;20029;-74
2022/04/09 05:01:57;;;;;;;5.90;3.42;;;;;;;;;;5044635;28;20067;-72
2022/04/09 05:04:25;;;;;;;4.53;2.92;;;;;;;;;;5041010;28;20025;-74
2022/04/09 05:06:51;;;;;;;8.80;3.40;;;;;;;;;;5044490;28;20091;-73
2022/04/09 05:09:17;;;;;;;7.63;3.20;;;;;;;;;;5033694;28;20025;-73
2022/04/09 05:11:43;;;;;;;6.93;3.08;;;;;;;;;;5048891;28;20029;-73
2022/04/09 05:14:09;;;;;;;6.70;3.58;;;;;;;;;;5051369;28;20665;-74
2022/04/09 05:16:36;;;;;;;8.45;3.40;;;;;;;;;;5052364;28;20057;-72
2022/04/09 05:19:02;;;;;;;12.18;3.25;;;;;;;;;;5052236;28;20447;-73
2022/04/09 05:21:28;;;;;;;4.55;2.75;;;;;;;;;;5048805;28;20036;-74
2022/04/09 05:23:54;;;;;;;3.92;2.60;;;;;;;;;;5032897;28;20028;-73
2022/04/09 05:26:20;;;;;;;9.70;3.42;;;;;;;;;;5051953;28;20043;-74
2022/04/09 05:28:52;;;;;;;8.52;3.47;;;;;;;;;;5047681;28;20060;-74
2022/04/09 05:31:19;;;;;;;7.75;4.00;;;;;;;;;;5047183;28;20033;-73
2022/04/09 05:33:45;;;;;;;5.85;3.30;;;;;;;;;;5043171;28;20082;-73
2022/04/09 05:36:11;;;;;;;6.35;4.13;;;;;;;;;;5050393;28;20029;-73
2022/04/09 05:38:37;;;;;;;6.40;3.33;;;;;;;;;;5027093;28;20025;-73
2022/04/09 05:41:03;;;;;;;5.72;3.63;;;;;;;;;;5053271;28;20479;-73
2022/04/09 05:43:29;;;;;;;8.88;3.75;;;;;;;;;;5050002;28;20166;-73
2022/04/09 05:45:55;;;;;;;7.57;3.28;;;;;;;;;;5051833;28;20055;-73
2022/04/09 05:48:21;;;;;;;5.07;3.22;;;;;;;;;;5047984;28;20033;-72
2022/04/09 05:50:47;;;;;;;6.50;3.28;;;;;;;;;;5046615;28;20032;-73
2022/04/09 05:53:13;;;;;;;7.43;3.63;;;;;;;;;;5046258;28;20553;-72
2022/04/09 05:55:40;;;;;;;6.20;3.53;;;;;;;;;;5044069;28;20013;-73
2022/04/09 05:58:06;;;;;;;6.40;3.33;;;;;;;;;;5057948;28;20078;-72
2022/04/09 06:00:33;;;;;;;4.50;3.08;;;;;;;;;;5059362;28;20025;-73
2022/04/09 06:03:00;;;;;;;4.47;3.33;;;;;;;;;;5062079;28;20039;-72
2022/04/09 06:05:26;;;;;;;11.05;3.30;;;;;;;;;;5052444;28;20040;-72
2022/04/09 06:07:52;;;;;;;3.83;3.08;;;;;;;;;;5053749;28;20486;-72
2022/04/09 06:10:19;;;;;;;5.28;3.30;;;;;;;;;;5050924;28;20033;-72
2022/04/09 06:12:45;;;;;;;8.00;2.85;;;;;;;;;;5054501;28;20017;-74
2022/04/09 06:15:11;;;;;;;5.82;3.50;;;;;;;;;;5058243;28;20497;-72
2022/04/09 06:17:39;;;;;;;4.50;3.28;;;;;;;;;;5052921;28;20119;-73
2022/04/09 06:20:06;;;;;;;4.82;3.08;;;;;;;;;;5055056;28;20032;-72
2022/04/09 06:22:32;;;;;;;5.55;3.35;;;;;;;;;;5054262;28;20036;-71
2022/04/09 06:24:58;;;;;;;9.07;3.20;;;;;;;;;;5040861;28;20029;-72
2022/04/09 06:27:24;;;;;;;5.97;3.17;;;;;;;;;;5041233;28;20105;-71
2022/04/09 06:29:51;;;;;;;5.45;3.30;;;;;;;;;;5039899;28;20036;-71
2022/04/09 06:32:17;;;;;;;7.20;3.20;;;;;;;;;;5037253;28;20139;-72
2022/04/09 06:34:43;;;;;;;7.32;3.28;;;;;;;;;;5062955;28;20031;-74
2022/04/09 06:37:09;;;;;;;8.07;3.30;;;;;;;;;;5039931;28;20025;-73
2022/04/09 06:39:35;;;;;;;4.65;3.72;;;;;;;;;;5055556;28;20047;-72
2022/04/09 06:42:01;;;;;;;9.57;3.72;;;;;;;;;;5056933;28;20443;-73
2022/04/09 06:44:27;;;;;;;5.32;3.30;;;;;;;;;;5041024;28;20029;-72
2022/04/09 06:46:53;;;;;;;5.40;2.75;;;;;;;;;;5041059;28;20109;-72
2022/04/09 06:49:20;;;;;;;6.07;3.42;;;;;;;;;;5058993;28;20044;-72
2022/04/09 06:51:47;;;;;;;5.47;3.42;;;;;;;;;;5056298;28;20092;-72
2022/04/09 06:54:13;;;;;;;6.22;2.95;;;;;;;;;;5056721;28;20033;-72
2022/04/09 06:56:39;;;;;;;8.55;3.30;;;;;;;;;;5059190;28;20021;-72
2022/04/09 06:59:06;;;;;;;4.63;3.20;;;;;;;;;;5058441;28;20156;-72
2022/04/09 07:01:32;;;;;;;10.48;3.80;;;;;;;;;;5051809;28;20032;-74
2022/04/09 07:04:00;;;;;;;6.95;3.50;;;;;;;;;;5055053;28;20039;-72
2022/04/09 07:06:26;;;;;;;6.85;3.58;;;;;;;;;;5052249;28;20065;-72
2022/04/09 07:08:52;;;;;;;6.88;3.50;;;;;;;;;;5056909;28;20032;-72
2022/04/09 07:11:18;;;;;;;5.47;3.20;;;;;;;;;;5046783;28;20037;-73
2022/04/09 07:13:44;;;;;;;5.10;3.55;;;;;;;;;;5050675;28;20033;-72
2022/04/09 07:16:11;;;;;;;5.85;3.40;;;;;;;;;;5051275;28;20029;-72
2022/04/09 07:18:37;;;;;;;3.97;3.08;;;;;;;;;;5055137;28;20021;-72
2022/04/09 07:21:04;;;;;;;6.75;4.40;;;;;;;;;;5057680;28;20083;-73
2022/04/09 07:23:30;;;;;;;8.15;4.30;;;;;;;;;;5046151;28;20048;-75
2022/04/09 07:25:56;;;;;;;10.32;4.50;;;;;;;;;;5043966;28;20083;-73
2022/04/09 07:28:22;;;;;;;9.50;5.03;;;;;;;;;;5044344;28;20033;-74
2022/04/09 07:30:48;;;;;;;7.22;4.28;;;;;;;;;;5041084;28;20108;-73
2022/04/09 07:33:14;;;;;;;4.93;3.80;;;;;;;;;;5047210;28;20021;-73
2022/04/09 07:35:40;;;;;;;5.65;3.85;;;;;;;;;;5043837;28;20068;-73
2022/04/09 07:38:07;;;;;;;4.13;2.88;;;;;;;;;;5048384;28;20029;-74
2022/04/09 07:40:34;;;;;;;4.80;2.58;;;;;;;;;;5041543;28;20116;-73
2022/04/09 07:43:01;;;;;;;4.30;2.45;;;;;;;;;;5043768;28;20454;-74
2022/04/09 07:45:28;;;;;;;6.03;3.58;;;;;;;;;;5045572;28;20769;-74
2022/04/09 07:47:55;;;;;;;3.70;2.60;;;;;;;;;;5045321;28;20055;-74
2022/04/09 07:50:21;;;;;;;4.88;2.63;;;;;;;;;;5046855;28;20025;-74
2022/04/09 07:52:47;;;;;;;4.93;2.90;;;;;;;;;;5046771;28;20021;-73
2022/04/09 07:55:17;;;;;;;6.35;2.65;;;;;;;;;;5044284;28;20037;-73
2022/04/09 07:57:47;;;;;;;6.03;2.85;;;;;;;;;;5042601;28;20025;-74
2022/04/09 08:00:17;;;;;;;4.50;2.63;;;;;;;;;;5029234;28;20040;-74
2022/04/09 08:02:43;;;;;;;4.05;2.92;;;;;;;;;;5048011;28;20033;-75
2022/04/09 08:05:10;;;;;;;5.53;2.95;;;;;;;;;;5045850;28;20083;-74
2022/04/09 08:07:37;;;;;;;6.00;2.92;;;;;;;;;;5047988;28;20104;-75
2022/04/09 08:10:04;;;;;;;4.03;2.67;;;;;;;;;;5043584;28;20044;-73
2022/04/09 08:12:30;;;;;;;5.70;3.58;;;;;;;;;;5043485;28;20021;-74
2022/04/09 08:14:56;;;;;;;7.47;3.30;;;;;;;;;;5039496;28;20037;-73
2022/04/09 08:17:23;;;;;;;6.35;3.35;;;;;;;;;;5038995;28;20034;-73
2022/04/09 08:19:49;;;;;;;6.32;2.90;;;;;;;;;;5045669;28;20085;-74
2022/04/09 08:22:16;;;;;;;9.23;3.78;;;;;;;;;;5053582;28;20036;-73
2022/04/09 08:24:43;;;;;;;6.75;3.10;;;;;;;;;;5051550;28;20025;-74
2022/04/09 08:27:09;;;;;;;6.13;3.00;;;;;;;;;;5050612;28;20024;-74
2022/04/09 08:29:35;;;;;;;5.85;3.15;;;;;;;;;;5051308;28;20355;-74
2022/04/09 08:32:02;;;;;;;4.38;3.03;;;;;;;;;;5051639;28;20021;-73
2022/04/09 08:34:29;;;;;;;7.85;2.83;;;;;;;;;;5051267;28;20481;-75
2022/04/09 08:36:56;;;;;;;3.92;2.95;;;;;;;;;;5051306;28;20027;-75
2022/04/09 08:39:22;;;;;;;5.30;2.80;;;;;;;;;;5044004;28;20048;-74
2022/04/09 08:41:50;;;;;;;4.07;2.80;;;;;;;;;;5047437;28;20037;-75
2022/04/09 08:44:17;;;;;;;5.50;3.00;;;;;;;;;;5032995;28;20033;-75
2022/04/09 08:46:45;;;;;;;4.60;2.53;;;;;;;;;;5033040;28;20069;-76
2022/04/09 08:49:11;;;;;;;5.60;3.40;;;;;;;;;;5051505;28;20135;-75
2022/04/09 08:51:37;;;;;;;5.22;2.75;;;;;;;;;;5051481;28;20051;-74
2022/04/09 08:54:04;;;;;;;7.35;2.45;;;;;;;;;;5034121;28;20211;-75
2022/04/09 08:56:33;;;;;;;4.53;2.60;;;;;;;;;;5051712;28;20474;-74
2022/04/09 08:58:59;;;;;;;4.70;2.95;;;;;;;;;;5053729;28;20013;-74
2022/04/09 09:01:26;;;;;;;4.93;2.70;;;;;;;;;;5052558;28;20024;-75
2022/04/09 09:03:52;;;;;;;5.28;2.80;;;;;;;;;;5046756;28;20029;-75
2022/04/09 09:06:29;;;;;;;10.63;3.65;;;;;;;;;;5050788;28;20541;-74
2022/04/09 09:08:56;;;;;;;8.40;2.65;;;;;;;;;;5032407;28;20056;-74
2022/04/09 09:11:23;;;;;;;4.97;3.33;;;;;;;;;;5031264;28;20025;-74
2022/04/09 09:13:50;;;;;;;6.40;3.10;;;;;;;;;;5052208;28;20029;-74
2022/04/09 09:16:25;;;;;;;5.45;2.90;;;;;;;;;;5032467;28;20021;-75
2022/04/09 09:18:52;;;;;;;7.32;3.25;;;;;;;;;;5031627;28;20108;-75
2022/04/09 09:21:23;;;;;;;4.57;3.10;;;;;;;;;;5021585;28;20033;-74
2022/04/09 09:23:49;;;;;;;8.98;3.30;;;;;;;;;;5038902;28;20044;-75
2022/04/09 09:26:22;;;;;;;5.90;3.40;;;;;;;;;;5041235;28;20021;-75
2022/04/09 09:28:55;;;;;;;7.80;2.60;;;;;;;;;;5048652;28;20069;-75
2022/04/09 09:31:39;;;;;;;3.97;2.47;;;;;;;;;;5032308;28;20021;-75
2022/04/09 09:34:13;;;;;;;7.13;2.50;;;;;;;;;;5049488;28;20028;-75
2022/04/09 09:36:41;;;;;;;6.97;2.80;;;;;;;;;;5049942;28;20055;-76
2022/04/09 09:39:08;;;;;;;10.10;3.60;;;;;;;;;;5031395;28;20113;-74
2022/04/09 09:41:34;;;;;;;7.03;3.85;;;;;;;;;;5040648;28;20598;-75
2022/04/09 09:44:07;;;;;;;12.55;6.60;;;;;;;;;;5051257;28;20025;-74
2022/04/09 09:46:34;;;;;;;7.80;3.72;;;;;;;;;;5050393;28;20057;-75
2022/04/09 09:49:00;;;;;;;5.00;3.00;;;;;;;;;;5050049;28;20119;-75
2022/04/09 09:51:27;;;;;;;8.43;3.40;;;;;;;;;;5049917;28;20033;-75
2022/04/09 09:54:07;;;;;;;4.35;2.38;;;;;;;;;;5046807;28;20036;-75
2022/04/09 09:56:35;;;;;;;5.30;2.70;;;;;;;;;;5046621;28;20090;-75
2022/04/09 09:59:02;;;;;;;5.15;2.60;;;;;;;;;;5031719;28;20056;-75
2022/04/09 10:01:28;;;;;;;3.70;2.83;;;;;;;;;;5054006;28;20051;-75
2022/04/09 10:03:54;;;;;;;4.07;2.40;;;;;;;;;;5050924;28;20498;-74
2022/04/09 10:06:23;;;;;;;4.68;1.95;;;;;;;;;;5019407;28;20033;-75
2022/04/09 10:08:49;;;;;;;3.47;2.00;;;;;;;;;;5031829;28;20082;-75
2022/04/09 10:11:19;;;;;;;4.22;1.98;;;;;;;;;;5030125;28;20033;-75
2022/04/09 10:13:47;;;;;;;3.28;2.45;;;;;;;;;;5033315;28;20025;-75
2022/04/09 10:16:21;;;;;;;5.70;2.47;;;;;;;;;;5026614;28;20021;-75
2022/04/09 10:18:50;;;;;;;5.47;2.10;;;;;;;;;;5022884;28;20025;-75
2022/04/09 10:21:19;;;;;;;7.65;2.53;;;;;;;;;;5024798;28;20075;-75
2022/04/09 10:23:46;;;;;;;4.20;1.98;;;;;;;;;;5029344;28;20029;-75
2022/04/09 10:26:12;;;;;;;2.65;1.92;;;;;;;;;;5030352;28;20094;-76
2022/04/09 10:28:39;;;;;;;5.93;2.22;;;;;;;;;;5028986;28;20041;-76
2022/04/09 10:31:24;;;;;;;2.47;2.20;;;;;;;;;;5030798;28;20032;-76
2022/04/09 10:33:57;;;;;;;2.83;1.98;;;;;;;;;;5028115;28;20034;-76
2022/04/09 10:36:41;;;;;;;3.95;2.00;;;;;;;;;;5012571;28;20168;-75
2022/04/09 10:39:21;;;;;;;5.40;2.05;;;;;;;;;;5029497;28;20157;-75
2022/04/09 10:41:48;;;;;;;4.10;1.95;;;;;;;;;;5025362;28;20679;-75
2022/04/09 10:44:34;;;;;;;3.55;2.00;;;;;;;;;;5023536;28;20032;-75
2022/04/09 10:47:04;;;;;;;3.63;2.10;;;;;;;;;;5002385;28;20116;-75
2022/04/09 10:49:31;;;;;;;4.03;1.77;;;;;;;;;;5022923;28;20029;-75
2022/04/09 10:51:58;;;;;;;3.65;1.98;;;;;;;;;;5026019;28;20035;-76
2022/04/09 10:54:24;;;;;;;5.07;2.40;;;;;;;;;;5023098;28;20034;-75
2022/04/09 10:56:50;;;;;;;5.47;2.90;;;;;;;;;;5028199;28;20029;-75
2022/04/09 10:59:19;;;;;;;4.40;3.30;;;;;;;;;;5020124;28;20511;-74
2022/04/09 11:01:51;;;;;;;3.55;2.00;;;;;;;;;;5020050;28;22341;-74
2022/04/09 11:04:26;;;;;;;4.35;2.30;;;;;;;;;;5021912;28;20116;-75
2022/04/09 11:07:12;;;;;;;2.30;1.98;;;;;;;;;;5020331;28;20399;-75
2022/04/09 11:09:53;;;;;;;4.10;2.13;;;;;;;;;;5018999;28;21949;-75
2022/04/09 11:12:20;;;;;;;4.07;1.88;;;;;;;;;;5020069;28;20040;-76
2022/04/09 11:14:48;;;;;;;2.50;2.00;;;;;;;;;;5025833;28;20408;-75
2022/04/09 11:17:17;;;;;;;7.95;4.63;;;;;;;;;;5021819;28;20032;-74
2022/04/09 11:19:43;;;;;;;13.05;6.85;;;;;;;;;;5024226;28;20026;-74
2022/04/09 11:22:10;;;;;;;5.35;2.35;;;;;;;;;;5024595;28;20026;-75
2022/04/09 11:24:37;;;;;;;3.88;2.25;;;;;;;;;;5023653;28;20384;-75
2022/04/09 11:27:03;;;;;;;5.25;2.58;;;;;;;;;;5028546;28;20014;-75
2022/04/09 11:29:35;;;;;;;3.88;2.58;;;;;;;;;;5025060;28;20041;-75
2022/04/09 11:32:02;;;;;;;2.05;1.65;;;;;;;;;;5028092;28;20033;-75
2022/04/09 11:34:29;;;;;;;5.05;2.22;;;;;;;;;;5027385;28;20478;-75
2022/04/09 11:37:10;;;;;;;1.90;1.80;;;;;;;;;;5026411;28;20034;-76
2022/04/09 11:39:44;;;;;;;3.97;2.15;;;;;;;;;;5024359;28;20038;-75
2022/04/09 11:42:10;;;;;;;3.63;2.00;;;;;;;;;;5001809;28;20032;-75
2022/04/09 11:44:38;;;;;;;3.47;2.10;;;;;;;;;;5023033;28;20029;-76
2022/04/09 11:47:10;;;;;;;3.75;1.70;;;;;;;;;;5018785;28;20124;-76
2022/04/09 11:49:37;;;;;;;2.92;2.53;;;;;;;;;;5024147;28;20099;-75
2022/04/09 11:52:04;;;;;;;3.28;1.75;;;;;;;;;;5005247;28;20026;-76
2022/04/09 11:54:30;;;;;;;2.83;2.10;;;;;;;;;;5007914;28;20059;-75
2022/04/09 11:56:57;;;;;;;3.47;3.17;;;;;;;;;;5022878;28;20526;-76
2022/04/09 11:59:23;;;;;;;7.30;2.50;;;;;;;;;;5022757;28;20064;-77
2022/04/09 12:01:52;;;;;;;3.47;1.80;;;;;;;;;;5019352;28;20288;-77
2022/04/09 12:04:23;;;;;;;4.28;1.90;;;;;;;;;;5023513;28;21370;-77
2022/04/09 12:06:49;;;;;;;4.72;2.55;;;;;;;;;;5017563;28;20072;-77
2022/04/09 12:09:15;;;;;;;3.05;2.05;;;;;;;;;;5034405;28;20029;-76
2022/04/09 12:11:53;;;;;;;2.53;2.10;;;;;;;;;;5038572;28;20401;-76
2022/04/09 12:14:24;;;;;;;3.70;2.00;;;;;;;;;;5038533;28;20029;-77
2022/04/09 12:16:50;;;;;;;2.80;1.67;;;;;;;;;;5033207;28;20504;-76
2022/04/09 12:19:16;;;;;;;3.30;1.80;;;;;;;;;;5036815;28;20035;-75
2022/04/09 12:21:42;;;;;;;10.13;2.70;;;;;;;;;;5026557;28;20021;-76
2022/04/09 12:24:10;;;;;;;3.58;3.05;;;;;;;;;;5034787;28;20037;-77
2022/04/09 12:26:39;;;;;;;3.45;2.10;;;;;;;;;;5032669;28;20036;-77
2022/04/09 12:29:11;;;;;;;2.45;1.80;;;;;;;;;;5036320;28;20104;-77
2022/04/09 12:31:37;;;;;;;3.03;2.10;;;;;;;;;;5017882;28;20056;-76
2022/04/09 12:34:04;;;;;;;2.95;2.00;;;;;;;;;;5039476;28;20060;-78
2022/04/09 12:36:30;;;;;;;2.15;1.88;;;;;;;;;;5018688;28;20037;-77
2022/04/09 12:38:56;;;;;;;3.00;2.08;;;;;;;;;;5037330;28;20035;-77
2022/04/09 12:41:22;;;;;;;2.80;2.10;;;;;;;;;;5039413;28;20560;-77
2022/04/09 12:43:52;;;;;;;2.92;1.90;;;;;;;;;;5044028;28;20064;-77
2022/04/09 12:46:19;;;;;;;3.35;1.88;;;;;;;;;;5038905;28;20615;-78
2022/04/09 12:48:46;;;;;;;3.38;2.25;;;;;;;;;;5034624;28;20029;-77
2022/04/09 12:51:18;;;;;;;3.45;1.80;;;;;;;;;;5037826;28;20087;-77
2022/04/09 12:53:45;;;;;;;3.05;1.90;;;;;;;;;;5039006;28;20021;-76
2022/04/09 12:56:12;;;;;;;4.47;1.77;;;;;;;;;;5038126;28;20210;-76
2022/04/09 12:58:40;;;;;;;4.70;2.03;;;;;;;;;;5041301;28;20038;-76
2022/04/09 13:01:07;;;;;;;3.67;1.90;;;;;;;;;;5038234;28;20133;-76
2022/04/09 13:03:33;;;;;;;1.70;1.60;;;;;;;;;;5038609;28;20036;-76
2022/04/09 13:05:59;;;;;;;2.25;1.88;;;;;;;;;;5036731;28;20072;-75
2022/04/09 13:08:26;;;;;;;4.18;2.13;;;;;;;;;;5037721;28;20029;-76
2022/04/09 13:10:52;;;;;;;4.93;2.15;;;;;;;;;;5037019;28;20652;-76
2022/04/09 13:13:18;;;;;;;2.58;1.90;;;;;;;;;;5035664;28;20036;-77
2022/04/09 13:15:45;;;;;;;2.45;1.80;;;;;;;;;;5037191;28;20047;-77
2022/04/09 13:18:12;;;;;;;2.42;1.80;;;;;;;;;;5036529;28;20036;-76
2022/04/09 13:20:38;;;;;;;2.35;2.00;;;;;;;;;;5035669;28;20051;-77
2022/04/09 13:23:07;;;;;;;2.78;1.92;;;;;;;;;;5038657;28;20440;-76
2022/04/09 13:25:34;;;;;;;3.55;1.95;;;;;;;;;;5037683;28;20033;-76
2022/04/09 13:28:02;;;;;;;2.10;1.90;;;;;;;;;;5018777;28;20131;-76
2022/04/09 13:30:29;;;;;;;3.05;1.98;;;;;;;;;;5035155;28;20631;-76
2022/04/09 13:32:56;;;;;;;2.42;1.80;;;;;;;;;;5018526;28;20025;-76
2022/04/09 13:35:23;;;;;;;2.53;1.80;;;;;;;;;;5033776;28;20397;-77
2022/04/09 13:37:52;;;;;;;2.63;1.65;;;;;;;;;;5034631;28;20033;-76
2022/04/09 13:40:21;;;;;;;1.92;1.60;;;;;;;;;;5029528;28;20075;-74
2022/04/09 13:42:50;;;;;;;2.88;1.77;;;;;;;;;;5029628;28;20192;-75
2022/04/09 13:45:17;;;;;;;2.30;1.80;;;;;;;;;;5034075;28;20084;-75
2022/04/09 13:47:43;;;;;;;2.40;1.55;;;;;;;;;;5031979;28;20036;-75
2022/04/09 13:50:10;;;;;;;2.88;2.00;;;;;;;;;;5032911;28;20032;-75
2022/04/09 13:52:37;;;;;;;3.47;1.70;;;;;;;;;;5034587;28;20052;-74
2022/04/09 13:55:03;;;;;;;1.70;1.55;;;;;;;;;;5036744;28;20029;-74
2022/04/09 13:57:30;;;;;;;2.67;2.13;;;;;;;;;;5036214;28;20039;-73
2022/04/09 13:59:56;;;;;;;2.50;1.80;;;;;;;;;;5037367;28;20350;-74
2022/04/09 14:02:22;;;;;;;2.67;2.03;;;;;;;;;;5032472;28;20021;-73
2022/04/09 14:04:49;;;;;;;5.15;3.00;;;;;;;;;;5039944;28;20029;-75
2022/04/09 14:07:15;;;;;;;3.05;2.15;;;;;;;;;;5032109;28;20127;-73
2022/04/09 14:09:41;;;;;;;5.53;3.00;;;;;;;;;;5032355;28;20032;-73
2022/04/09 14:12:07;;;;;;;6.47;5.75;;;;;;;;;;5034102;28;20418;-74
2022/04/09 14:14:34;;;;;;;5.78;2.10;;;;;;;;;;5033550;28;20021;-74
2022/04/09 14:17:00;;;;;;;4.13;2.20;;;;;;;;;;5033039;28;20045;-75
2022/04/09 14:19:26;;;;;;;3.80;2.40;;;;;;;;;;5034171;28;20033;-75
2022/04/09 14:21:53;;;;;;;4.80;2.38;;;;;;;;;;5033520;28;20036;-75
2022/04/09 14:24:21;;;;;;;3.10;2.20;;;;;;;;;;5034431;28;20108;-75
2022/04/09 14:26:47;;;;;;;3.85;1.90;;;;;;;;;;5034553;28;20111;-75
2022/04/09 14:29:13;;;;;;;1.90;1.70;;;;;;;;;;5034051;28;20094;-74
2022/04/09 14:31:39;;;;;;;3.65;2.13;;;;;;;;;;5031454;28;20036;-77
2022/04/09 14:34:05;;;;;;;5.82;3.00;;;;;;;;;;5033793;28;20044;-76
2022/04/09 14:36:31;;;;;;;4.07;2.10;;;;;;;;;;5032695;28;20036;-74
2022/04/09 14:38:57;;;;;;;3.10;2.17;;;;;;;;;;5033409;28;21099;-74
2022/04/09 14:41:23;;;;;;;3.38;1.80;;;;;;;;;;5038131;28;21945;-75
2022/04/09 14:43:53;;;;;;;3.17;1.73;;;;;;;;;;5021271;28;20045;-75